Time;durP1;ratioP1;P1;durP2;ratioP2;P2;SDS_P1;SDS_P2;PMS_P1;PMS_P2;Temp;Humidity;BMP_temperature;BMP_pressure;BME280_temperature;BME280_humidity;BME280_pressure;Samples;Min_cycle;Max_cycle;Signal;HPM_P1;HPM_P2
2022/09/07 00:01:32;;;;;;;6.75;4.12;;;25.90;72.70;;;;;;10974778;27;20034;-72
2022/09/07 00:07:34;;;;;;;5.37;3.53;;;25.80;72.60;;;;;;11018190;32;20014;-72
2022/09/07 00:13:38;;;;;;;5.80;3.62;;;25.80;72.80;;;;;;11018817;32;20034;-72
2022/09/07 00:19:41;;;;;;;8.15;4.68;;;25.80;72.70;;;;;;10862804;32;20019;-72
2022/09/07 00:25:43;;;;;;;6.62;4.03;;;25.80;72.40;;;;;;10913543;32;20028;-72
2022/09/07 00:31:45;;;;;;;7.10;4.87;;;25.80;72.50;;;;;;10858122;32;20058;-72
2022/09/07 00:37:47;;;;;;;7.03;4.50;;;25.80;72.70;;;;;;10862434;32;20028;-72
2022/09/07 00:43:58;;;;;;;12.77;4.85;;;25.80;72.80;;;;;;10862303;32;20035;-73
2022/09/07 00:50:09;;;;;;;7.32;4.40;;;25.80;72.90;;;;;;10862226;32;20383;-73
2022/09/07 00:56:32;;;;;;;5.55;3.75;;;25.70;73.00;;;;;;10861758;32;20039;-72
2022/09/07 01:02:34;;;;;;;9.85;5.70;;;25.70;72.80;;;;;;11006843;32;20014;-72
2022/09/07 01:08:36;;;;;;;8.25;4.45;;;25.80;72.80;;;;;;11055939;32;20022;-72
2022/09/07 01:15:06;;;;;;;7.30;4.55;;;25.70;72.90;;;;;;11056145;32;20022;-72
2022/09/07 01:21:57;;;;;;;7.03;5.37;;;25.60;73.00;;;;;;11059246;32;20056;-72
2022/09/07 01:28:26;;;;;;;6.57;4.87;;;25.60;73.00;;;;;;10869932;32;20372;-72
2022/09/07 01:34:29;;;;;;;8.48;3.83;;;25.50;73.30;;;;;;11063087;32;20037;-73
2022/09/07 01:40:41;;;;;;;7.60;4.37;;;25.60;73.50;;;;;;11062840;32;20314;-73
2022/09/07 01:47:00;;;;;;;8.07;5.85;;;25.60;73.50;;;;;;11062573;32;20010;-72
2022/09/07 01:53:15;;;;;;;14.87;5.32;;;25.50;73.40;;;;;;11062495;32;20017;-72
2022/09/07 01:59:43;;;;;;;7.40;4.68;;;25.60;73.40;;;;;;11062203;32;20056;-72
2022/09/07 02:05:57;;;;;;;7.70;5.82;;;25.50;73.30;;;;;;11048405;32;20350;-72
2022/09/07 02:12:05;;;;;;;7.18;5.40;;;25.50;73.30;;;;;;11057363;32;20385;-72
2022/09/07 02:18:09;;;;;;;;;;;25.50;73.40;;;;;;11048096;32;20386;-72
2022/09/07 02:24:20;;;;;;;5.75;4.35;;;25.40;73.80;;;;;;11061414;32;19947;-72
2022/09/07 02:30:23;;;;;;;6.87;3.83;;;25.40;73.90;;;;;;11061100;32;20029;-72
2022/09/07 02:36:32;;;;;;;6.62;5.32;;;25.40;73.70;;;;;;11061082;32;20080;-72
2022/09/07 02:42:37;;;;;;;7.15;4.20;;;25.40;73.90;;;;;;11060646;32;20399;-72
2022/09/07 02:48:59;;;;;;;4.95;4.07;;;25.30;74.00;;;;;;11060350;32;20025;-72
2022/09/07 02:55:29;;;;;;;9.35;5.22;;;25.30;74.10;;;;;;11055922;32;20018;-72
2022/09/07 03:02:21;;;;;;;5.30;3.92;;;25.30;74.00;;;;;;11059934;32;20017;-72
2022/09/07 03:08:34;;;;;;;9.30;5.82;;;25.30;74.10;;;;;;11046717;32;20041;-74
2022/09/07 03:14:40;;;;;;;5.55;4.03;;;25.10;74.70;;;;;;11059101;32;20037;-73
2022/09/07 03:20:42;;;;;;;4.00;2.90;;;25.00;75.20;;;;;;11057873;32;20018;-73
2022/09/07 03:26:47;;;;;;;6.22;3.28;;;24.90;75.50;;;;;;11058653;32;20034;-73
2022/09/07 03:32:50;;;;;;;4.25;2.42;;;24.90;75.60;;;;;;11044759;32;20027;-73
2022/09/07 03:38:52;;;;;;;2.58;2.12;;;24.80;75.40;;;;;;11058456;32;20025;-72
2022/09/07 03:44:54;;;;;;;5.00;2.37;;;24.80;75.20;;;;;;11057835;32;20026;-73
2022/09/07 03:51:01;;;;;;;3.20;2.42;;;24.80;75.10;;;;;;11057855;32;20038;-73
2022/09/07 03:57:04;;;;;;;3.25;2.58;;;24.90;74.80;;;;;;11057715;32;20022;-73
2022/09/07 04:03:06;;;;;;;3.45;2.20;;;24.90;74.90;;;;;;11057621;32;20076;-73
2022/09/07 04:09:11;;;;;;;2.33;1.50;;;24.80;74.90;;;;;;11057413;32;20052;-73
2022/09/07 04:15:14;;;;;;;2.12;1.75;;;24.70;74.90;;;;;;11057128;32;20056;-72
2022/09/07 04:21:19;;;;;;;3.28;2.45;;;24.70;75.10;;;;;;11056840;32;20050;-73
2022/09/07 04:27:21;;;;;;;4.25;3.15;;;24.60;75.40;;;;;;11056653;32;20026;-73
2022/09/07 04:33:23;;;;;;;4.95;2.55;;;24.60;75.40;;;;;;11056590;32;20048;-73
2022/09/07 04:39:48;;;;;;;4.12;2.50;;;24.60;75.30;;;;;;11052164;32;20066;-73
2022/09/07 04:45:50;;;;;;;3.15;2.55;;;24.60;75.40;;;;;;11042888;32;20041;-73
2022/09/07 04:52:03;;;;;;;2.42;1.87;;;24.60;75.60;;;;;;11042735;32;20300;-73
2022/09/07 04:58:12;;;;;;;4.30;2.20;;;24.60;75.90;;;;;;11062128;32;20044;-73
2022/09/07 05:04:16;;;;;;;4.72;3.08;;;24.60;75.80;;;;;;11064125;32;20026;-73
2022/09/07 05:10:18;;;;;;;2.50;1.83;;;24.60;75.70;;;;;;11063841;32;20322;-73
2022/09/07 05:16:23;;;;;;;2.35;1.87;;;24.60;75.50;;;;;;11063942;32;20053;-72
2022/09/07 05:22:30;;;;;;;4.50;2.50;;;24.60;75.40;;;;;;11063530;32;20017;-72
2022/09/07 05:28:34;;;;;;;9.20;2.30;;;24.60;75.30;;;;;;11063143;32;20019;-73
2022/09/07 05:34:39;;;;;;;4.82;3.00;;;24.60;75.30;;;;;;11062732;32;20072;-73
2022/09/07 05:40:44;;;;;;;3.45;2.28;;;24.60;75.30;;;;;;11049133;32;20445;-73
2022/09/07 05:46:46;;;;;;;4.85;2.50;;;24.50;75.80;;;;;;11059383;32;20049;-73
2022/09/07 05:52:49;;;;;;;2.30;1.80;;;24.50;75.90;;;;;;11048720;32;20056;-73
2022/09/07 05:58:51;;;;;;;3.10;2.35;;;24.50;75.90;;;;;;11040505;32;20018;-73
2022/09/07 06:04:54;;;;;;;4.85;2.80;;;24.50;75.90;;;;;;11061561;32;20030;-73
2022/09/07 06:10:56;;;;;;;5.45;2.92;;;24.40;76.00;;;;;;11061554;32;20171;-74
2022/09/07 06:16:59;;;;;;;5.47;3.37;;;24.40;76.10;;;;;;11061430;32;20394;-74
2022/09/07 06:23:06;;;;;;;;;;;24.30;76.30;;;;;;11061127;32;20381;-73
2022/09/07 06:29:09;;;;;;;5.18;3.15;;;24.30;76.50;;;;;;11061711;32;19928;-74
2022/09/07 06:35:12;;;;;;;3.10;2.65;;;24.30;76.80;;;;;;11060615;32;20018;-73
2022/09/07 06:41:18;;;;;;;4.68;3.05;;;24.40;76.70;;;;;;11047037;32;20002;-73
2022/09/07 06:48:05;;;;;;;4.70;3.22;;;24.40;76.70;;;;;;11023287;32;20376;-73
2022/09/07 06:54:09;;;;;;;4.62;2.85;;;24.50;76.60;;;;;;11021742;32;20084;-73
2022/09/07 07:00:45;;;;;;;5.50;3.80;;;24.60;76.40;;;;;;10942391;32;20058;-74
2022/09/07 07:06:47;;;;;;;4.43;2.92;;;24.80;76.40;;;;;;10941447;32;20065;-73
2022/09/07 07:12:51;;;;;;;4.25;3.05;;;24.80;76.20;;;;;;10941028;32;20411;-73
2022/09/07 07:18:55;;;;;;;4.05;2.60;;;24.80;75.90;;;;;;10936254;32;20027;-73
2022/09/07 07:24:57;;;;;;;4.03;2.25;;;24.90;75.70;;;;;;10940240;32;20051;-73
2022/09/07 07:31:03;;;;;;;4.55;3.15;;;24.80;75.90;;;;;;10940623;32;20039;-72
2022/09/07 07:37:05;;;;;;;3.30;2.37;;;24.80;76.10;;;;;;10939996;32;20023;-72
2022/09/07 07:43:07;;;;;;;3.67;2.33;;;24.70;76.10;;;;;;10935970;32;20062;-72
2022/09/07 07:49:09;;;;;;;3.78;2.10;;;24.70;76.30;;;;;;10939505;32;20054;-72
2022/09/07 07:55:11;;;;;;;2.80;2.22;;;24.60;76.40;;;;;;10939792;32;20030;-72
2022/09/07 08:01:17;;;;;;;4.40;3.10;;;24.60;76.60;;;;;;10366895;32;16915634;-72
2022/09/07 08:07:20;;;;;;;3.28;2.12;;;24.70;76.40;;;;;;10853567;32;20028;-72
2022/09/07 08:13:22;;;;;;;7.22;3.25;;;24.70;76.40;;;;;;10902301;32;20036;-71
2022/09/07 08:19:50;;;;;;;4.53;2.87;;;24.80;76.20;;;;;;10900646;32;20308;-72
2022/09/07 08:25:53;;;;;;;4.00;3.10;;;24.90;76.00;;;;;;10901131;32;20379;-72
2022/09/07 08:31:55;;;;;;;5.60;3.60;;;25.10;75.90;;;;;;10911892;32;20065;-72
2022/09/07 08:37:57;;;;;;;5.00;3.58;;;25.10;75.80;;;;;;10942013;32;20058;-69
2022/09/07 08:44:21;;;;;;;5.93;3.83;;;25.20;75.80;;;;;;10942018;32;20022;-69
2022/09/07 08:50:29;;;;;;;6.28;3.85;;;25.30;75.50;;;;;;10941885;32;20023;-70
2022/09/07 08:56:37;;;;;;;6.32;4.07;;;25.40;75.40;;;;;;10941914;32;20023;-70
2022/09/07 09:02:38;;;;;;;;;;;25.60;75.20;;;;;;10938693;32;20049;-69
2022/09/07 09:08:45;;;;;;;5.55;3.50;;;25.80;74.90;;;;;;10928088;32;19922;-68
2022/09/07 09:15:16;;;;;;;5.15;2.62;;;26.00;74.50;;;;;;10928820;32;20031;-72
2022/09/07 09:21:19;;;;;;;6.43;4.32;;;26.10;74.20;;;;;;10941435;32;20026;-72
2022/09/07 09:27:21;;;;;;;4.85;2.92;;;26.20;74.10;;;;;;10941477;32;20015;-72
2022/09/07 09:33:26;;;;;;;7.50;4.15;;;26.30;74.00;;;;;;10941179;32;20015;-72
2022/09/07 09:39:36;;;;;;;8.30;4.00;;;26.30;73.80;;;;;;10941077;32;20042;-72
2022/09/07 09:45:45;;;;;;;6.12;3.47;;;26.40;73.80;;;;;;10947386;32;20023;-73
2022/09/07 09:51:51;;;;;;;9.00;3.37;;;26.60;73.50;;;;;;10947909;32;20335;-73
2022/09/07 09:57:57;;;;;;;3.75;2.60;;;26.80;72.90;;;;;;10934523;32;20024;-72
2022/09/07 10:04:33;;;;;;;3.17;2.22;;;26.80;72.50;;;;;;10943565;32;20390;-72
2022/09/07 10:10:35;;;;;;;6.68;2.83;;;27.10;72.10;;;;;;10943151;32;20030;-68
2022/09/07 10:16:43;;;;;;;3.85;2.33;;;27.30;71.70;;;;;;10933605;32;20037;-69
2022/09/07 10:22:51;;;;;;;3.72;2.47;;;27.30;71.20;;;;;;10946789;32;20015;-70
2022/09/07 10:29:13;;;;;;;3.78;2.72;;;27.50;70.80;;;;;;10933280;32;20016;-69
2022/09/07 10:35:24;;;;;;;5.22;2.62;;;27.70;70.30;;;;;;10946563;32;20023;-70
2022/09/07 10:41:42;;;;;;;5.10;3.17;;;27.80;70.00;;;;;;10946256;32;20014;-69
2022/09/07 10:47:52;;;;;;;4.78;2.50;;;27.90;69.40;;;;;;10946093;32;20027;-70
2022/09/07 10:54:19;;;;;;;3.15;2.12;;;28.10;69.30;;;;;;10944773;32;20030;-70
2022/09/07 11:00:22;;;;;;;5.05;2.87;;;28.30;68.80;;;;;;10945478;32;20366;-71
2022/09/07 11:06:44;;;;;;;4.80;2.40;;;28.50;68.40;;;;;;10931969;32;20014;-70
2022/09/07 11:12:49;;;;;;;3.75;2.30;;;28.80;67.70;;;;;;10945200;32;20058;-70
2022/09/07 11:19:01;;;;;;;3.33;2.62;;;28.80;67.70;;;;;;10944896;32;20031;-70
2022/09/07 11:25:27;;;;;;;3.30;2.20;;;29.00;66.90;;;;;;10942318;32;20347;-70
2022/09/07 11:31:46;;;;;;;9.02;3.62;;;29.00;66.70;;;;;;10944544;32;20409;-70
2022/09/07 11:37:58;;;;;;;4.07;2.25;;;29.20;66.70;;;;;;10943542;32;20030;-72
2022/09/07 11:44:40;;;;;;;4.07;2.45;;;29.40;65.90;;;;;;10940233;32;20049;-72
2022/09/07 11:51:02;;;;;;;4.03;2.15;;;29.30;65.80;;;;;;10865798;32;20069;-72
2022/09/07 11:57:25;;;;;;;3.17;2.15;;;29.40;65.60;;;;;;10864825;32;20032;-72
2022/09/07 12:04:00;;;;;;;4.65;2.80;;;29.40;65.60;;;;;;10851911;32;20058;-72
2022/09/07 12:10:05;;;;;;;8.55;2.53;;;29.50;65.00;;;;;;10864265;32;20035;-72
2022/09/07 12:16:32;;;;;;;3.72;2.37;;;29.40;65.20;;;;;;10859977;32;20059;-72
2022/09/07 12:22:34;;;;;;;3.83;2.90;;;29.60;64.90;;;;;;10864709;32;20434;-72
2022/09/07 12:28:36;;;;;;;3.95;2.15;;;29.80;64.40;;;;;;10942889;32;20007;-72
2022/09/07 12:34:50;;;;;;;3.40;2.53;;;29.90;63.80;;;;;;10929181;32;20347;-72
2022/09/07 12:41:00;;;;;;;3.87;2.87;;;29.90;63.50;;;;;;10937649;32;20053;-73
2022/09/07 12:47:31;;;;;;;5.55;2.70;;;29.80;63.20;;;;;;10942327;32;20026;-73
2022/09/07 12:53:50;;;;;;;2.72;1.95;;;29.80;63.20;;;;;;10940415;32;20065;-72
2022/09/07 13:00:05;;;;;;;5.40;2.50;;;29.80;62.70;;;;;;10928466;32;20340;-72
2022/09/07 13:06:21;;;;;;;5.75;3.08;;;29.80;62.30;;;;;;10942057;32;20374;-73
2022/09/07 13:12:36;;;;;;;35.40;28.80;;;29.80;62.20;;;;;;10928386;32;20061;-72
2022/09/07 13:18:42;;;;;;;11.70;8.77;;;29.70;62.20;;;;;;10933109;32;20023;-73
2022/09/07 13:24:51;;;;;;;16.58;10.98;;;29.60;62.10;;;;;;10908288;32;20019;-72
2022/09/07 13:31:21;;;;;;;14.02;12.15;;;29.50;62.10;;;;;;10911091;32;20032;-73
2022/09/07 13:37:25;;;;;;;14.25;6.62;;;29.60;61.80;;;;;;10897857;32;20042;-72
2022/09/07 13:43:27;;;;;;;15.15;7.25;;;29.60;61.80;;;;;;10910818;32;20136;-73
2022/09/07 13:50:09;;;;;;;16.15;7.25;;;29.60;61.60;;;;;;10910560;32;20023;-72
2022/09/07 13:56:28;;;;;;;13.50;6.00;;;29.60;61.90;;;;;;10910432;32;20023;-72
2022/09/07 14:02:51;;;;;;;8.38;4.35;;;29.50;62.00;;;;;;10910213;32;20019;-72
2022/09/07 14:08:56;;;;;;;11.63;4.75;;;29.70;61.80;;;;;;10910245;32;20042;-72
2022/09/07 14:15:17;;;;;;;6.50;3.78;;;29.70;61.70;;;;;;10905658;32;20054;-72
2022/09/07 14:21:20;;;;;;;9.57;2.75;;;29.70;60.80;;;;;;10909667;32;20027;-72
2022/09/07 14:27:23;;;;;;;3.12;2.17;;;29.50;61.10;;;;;;10916353;32;20046;-73
2022/09/07 14:33:27;;;;;;;3.60;2.30;;;29.50;61.20;;;;;;10947444;32;20045;-72
2022/09/07 14:39:33;;;;;;;3.53;1.73;;;29.60;61.50;;;;;;10946819;32;20014;-72
2022/09/07 14:45:39;;;;;;;2.33;1.95;;;29.60;61.40;;;;;;10946747;32;20050;-72
2022/09/07 14:51:44;;;;;;;3.78;1.60;;;29.70;61.30;;;;;;10932933;32;20015;-72
2022/09/07 14:57:46;;;;;;;2.47;1.33;;;29.80;61.00;;;;;;10941999;32;20049;-72
2022/09/07 15:03:55;;;;;;;3.35;1.65;;;29.80;61.00;;;;;;10932438;32;20019;-72
2022/09/07 15:10:21;;;;;;;2.85;1.58;;;30.00;60.80;;;;;;10941224;32;20062;-72
2022/09/07 15:16:27;;;;;;;5.65;1.75;;;30.10;60.60;;;;;;10945510;32;20293;-72
2022/09/07 15:22:33;;;;;;;4.28;1.73;;;30.10;60.60;;;;;;10945320;32;20023;-72
2022/09/07 15:28:36;;;;;;;3.30;1.95;;;30.10;60.50;;;;;;10945099;32;20041;-72
2022/09/07 15:34:38;;;;;;;3.72;1.45;;;30.10;60.80;;;;;;10944601;32;20055;-73
2022/09/07 15:40:55;;;;;;;5.97;1.40;;;30.10;60.70;;;;;;10943929;32;20426;-72
2022/09/07 15:47:02;;;;;;;2.08;1.27;;;30.10;60.60;;;;;;10940288;32;20101;-72
2022/09/07 15:53:06;;;;;;;2.60;1.48;;;30.20;60.60;;;;;;10944236;32;20348;-72
2022/09/07 15:59:09;;;;;;;2.83;1.50;;;30.30;60.40;;;;;;10906010;27;20052;-72
2022/09/07 16:05:11;;;;;;;8.15;2.47;;;30.20;61.00;;;;;;10800528;32;20380;-72
2022/09/07 16:11:27;;;;;;;1.50;1.30;;;30.00;61.30;;;;;;10905858;32;20027;-73
2022/09/07 16:17:29;;;;;;;2.55;1.42;;;29.80;61.70;;;;;;10887718;32;20340;-73
2022/09/07 16:23:31;;;;;;;3.05;1.50;;;29.70;62.00;;;;;;10905076;32;20027;-72
2022/09/07 16:29:34;;;;;;;4.32;1.40;;;29.70;62.20;;;;;;10715529;33;20036;-72
2022/09/07 16:35:37;;;;;;;3.35;1.73;;;30.10;61.40;;;;;;10715956;33;20406;-72
2022/09/07 16:41:41;;;;;;;4.62;1.60;;;31.30;59.30;;;;;;10715966;33;20021;-73
2022/09/07 16:47:43;;;;;;;5.22;1.67;;;31.90;57.90;;;;;;10715351;33;20055;-72
2022/09/07 16:53:46;;;;;;;7.68;1.58;;;31.70;58.30;;;;;;10712459;33;20036;-72
2022/09/07 16:59:48;;;;;;;6.22;1.80;;;30.90;60.00;;;;;;10714204;33;20064;-70
2022/09/07 17:05:51;;;;;;;1.77;1.30;;;30.20;61.70;;;;;;10714674;33;20389;-70
2022/09/07 17:12:11;;;;;;;2.60;1.52;;;29.80;62.70;;;;;;10710373;33;20029;-70
2022/09/07 17:18:14;;;;;;;2.78;1.50;;;29.40;63.20;;;;;;10714091;33;20029;-70
2022/09/07 17:24:16;;;;;;;1.80;0.90;;;29.20;63.70;;;;;;10714284;33;20036;-70
2022/09/07 17:30:18;;;;;;;1.73;1.40;;;29.00;64.00;;;;;;10714676;32;20444;-70
2022/09/07 17:36:22;;;;;;;4.97;1.23;;;28.80;64.20;;;;;;10714056;32;20021;-70
2022/09/07 17:42:26;;;;;;;3.25;0.80;;;28.70;64.50;;;;;;10725539;32;20032;-70
2022/09/07 17:49:06;;;;;;;1.85;1.10;;;28.60;64.70;;;;;;10750085;33;20052;-70
2022/09/07 17:55:09;;;;;;;2.40;1.70;;;28.40;64.90;;;;;;10750040;33;20086;-70
2022/09/07 18:01:18;;;;;;;2.50;1.33;;;28.30;65.10;;;;;;10750307;33;20048;-70
2022/09/07 18:07:23;;;;;;;3.60;1.30;;;28.20;65.30;;;;;;10755947;33;20024;-70
2022/09/07 18:13:25;;;;;;;2.05;1.37;;;28.10;65.40;;;;;;10755510;33;20048;-70
2022/09/07 18:19:27;;;;;;;2.70;1.27;;;28.10;65.60;;;;;;10755187;33;20033;-70
2022/09/07 18:25:45;;;;;;;4.15;1.23;;;28.00;65.70;;;;;;10755473;33;20075;-70
2022/09/07 18:31:47;;;;;;;1.98;1.27;;;27.90;65.90;;;;;;10755423;32;20051;-70
2022/09/07 18:37:49;;;;;;;2.80;1.40;;;27.90;66.00;;;;;;10718401;33;20029;-70
2022/09/07 18:44:14;;;;;;;12.52;2.45;;;27.80;66.20;;;;;;10718102;33;20038;-70
2022/09/07 18:50:16;;;;;;;4.22;1.95;;;27.70;66.40;;;;;;10717854;33;20047;-70
2022/09/07 18:56:20;;;;;;;5.12;1.80;;;27.60;66.60;;;;;;10717823;33;20388;-71
2022/09/07 19:02:22;;;;;;;3.90;1.25;;;27.50;66.80;;;;;;10717994;32;20043;-70
2022/09/07 19:08:24;;;;;;;6.35;2.10;;;27.50;67.10;;;;;;10717476;33;20028;-70
2022/09/07 19:14:26;;;;;;;2.45;1.75;;;27.40;67.40;;;;;;10716693;33;20325;-70
2022/09/07 19:20:29;;;;;;;2.53;1.58;;;27.40;67.50;;;;;;10717197;33;20068;-70
2022/09/07 19:26:35;;;;;;;2.22;1.48;;;27.30;67.50;;;;;;10717147;33;20012;-70
2022/09/07 19:32:37;;;;;;;1.95;1.33;;;27.30;67.60;;;;;;10716678;33;20448;-71
2022/09/07 19:38:39;;;;;;;2.35;1.33;;;27.30;67.70;;;;;;10716676;33;20056;-70
2022/09/07 19:44:42;;;;;;;3.42;2.37;;;27.20;67.80;;;;;;10716714;33;20333;-70
2022/09/07 19:50:45;;;;;;;3.90;1.60;;;27.10;68.00;;;;;;10703534;33;20390;-70
2022/09/07 19:56:47;;;;;;;3.40;2.42;;;27.10;68.10;;;;;;10703152;33;20037;-70
2022/09/07 20:02:51;;;;;;;3.50;1.95;;;27.10;68.20;;;;;;10715991;32;20080;-70
2022/09/07 20:08:54;;;;;;;3.72;1.70;;;27.00;68.40;;;;;;10716159;33;20055;-70
2022/09/07 20:15:04;;;;;;;7.22;1.75;;;27.00;68.60;;;;;;10715934;33;20326;-70
2022/09/07 20:21:24;;;;;;;2.00;1.50;;;27.00;68.70;;;;;;10715890;33;20300;-69
2022/09/07 20:27:26;;;;;;;8.23;3.72;;;26.90;68.70;;;;;;10711320;33;20024;-70
2022/09/07 20:33:30;;;;;;;5.25;2.83;;;26.90;68.80;;;;;;10715549;33;20444;-70
2022/09/07 20:39:32;;;;;;;5.20;2.08;;;26.90;68.90;;;;;;10715490;33;20021;-70
2022/09/07 20:45:34;;;;;;;6.43;2.67;;;26.80;69.40;;;;;;10715408;33;20051;-70
2022/09/07 20:51:37;;;;;;;11.10;3.28;;;26.70;70.40;;;;;;10715154;33;20029;-70
2022/09/07 20:57:39;;;;;;;5.50;3.28;;;26.70;70.80;;;;;;10714678;32;20068;-70
2022/09/07 21:03:45;;;;;;;4.82;2.47;;;26.70;70.70;;;;;;10714913;33;20021;-69
2022/09/07 21:09:48;;;;;;;5.60;2.53;;;26.70;70.50;;;;;;10714682;33;20033;-70
2022/09/07 21:15:50;;;;;;;8.55;3.53;;;26.70;70.40;;;;;;10718431;32;20051;-70
2022/09/07 21:22:02;;;;;;;3.30;2.45;;;26.70;70.60;;;;;;10714558;33;20056;-70
2022/09/07 21:28:04;;;;;;;3.42;2.33;;;26.70;70.50;;;;;;10714367;33;20033;-70
2022/09/07 21:34:06;;;;;;;4.72;2.30;;;26.70;70.80;;;;;;10714128;33;20079;-70
2022/09/07 21:40:08;;;;;;;5.85;2.67;;;26.50;71.10;;;;;;10718827;33;20025;-70
2022/09/07 21:46:16;;;;;;;3.65;2.20;;;26.50;71.10;;;;;;10720367;33;20025;-70
2022/09/07 21:52:19;;;;;;;3.58;2.62;;;26.60;71.00;;;;;;10720163;33;20393;-70
2022/09/07 21:58:21;;;;;;;4.35;2.40;;;26.60;71.10;;;;;;10720003;32;20020;-70
2022/09/07 22:04:23;;;;;;;3.50;2.42;;;26.50;71.50;;;;;;10719865;33;20021;-70
2022/09/07 22:10:25;;;;;;;3.58;2.78;;;26.40;71.90;;;;;;10719613;33;20342;-69
2022/09/07 22:16:27;;;;;;;3.78;2.50;;;26.30;72.20;;;;;;10719468;33;20310;-70
2022/09/07 22:22:30;;;;;;;4.65;2.42;;;26.30;72.00;;;;;;10715317;33;20368;-70
2022/09/07 22:28:32;;;;;;;4.22;2.67;;;26.40;71.90;;;;;;10719167;33;20334;-70
2022/09/07 22:34:34;;;;;;;8.50;3.05;;;26.40;72.00;;;;;;10715616;33;20067;-70
2022/09/07 22:40:37;;;;;;;4.60;3.55;;;26.30;72.00;;;;;;10718867;33;20337;-70
2022/09/07 22:46:41;;;;;;;4.70;3.03;;;26.30;72.30;;;;;;10705743;33;20314;-70
2022/09/07 22:52:43;;;;;;;4.35;3.28;;;26.20;72.80;;;;;;10718362;33;20025;-69
2022/09/07 22:58:47;;;;;;;6.22;3.78;;;26.20;72.90;;;;;;10718110;32;20029;-70
2022/09/07 23:04:49;;;;;;;6.90;2.50;;;26.20;72.80;;;;;;10718202;33;20021;-70
2022/09/07 23:10:51;;;;;;;5.55;2.75;;;26.20;73.00;;;;;;10717971;33;20043;-70
2022/09/07 23:16:53;;;;;;;3.90;2.37;;;26.10;73.50;;;;;;10717745;33;20389;-70
2022/09/07 23:22:56;;;;;;;5.68;2.40;;;26.10;73.50;;;;;;10717629;33;20303;-69
2022/09/07 23:29:03;;;;;;;3.60;2.28;;;26.00;74.00;;;;;;10717387;33;20025;-70
2022/09/07 23:35:05;;;;;;;3.47;2.28;;;26.00;74.10;;;;;;10717278;33;20051;-70
2022/09/07 23:41:07;;;;;;;4.20;2.67;;;26.00;74.20;;;;;;10704337;33;20036;-70
2022/09/07 23:47:10;;;;;;;5.18;2.90;;;26.00;74.20;;;;;;10717007;33;20368;-70
2022/09/07 23:53:12;;;;;;;5.22;3.85;;;25.90;74.80;;;;;;10716674;33;20052;-70
2022/09/07 23:59:14;;;;;;;4.37;3.20;;;25.80;74.80;;;;;;10744983;27;20451;-70
